sensor_id;sensor_type;location;lat;lon;timestamp;P1;durP1;ratioP1;P2;durP2;ratioP2
44893;SDS011;30625;52.206;21.030;2023-05-10T00:00:57;13.73;;;6.97;;
44893;SDS011;30625;52.206;21.030;2023-05-10T00:03:22;14.98;;;6.85;;
44893;SDS011;30625;52.206;21.030;2023-05-10T00:05:48;12.25;;;6.57;;
44893;SDS011;30625;52.206;21.030;2023-05-10T00:08:14;11.65;;;6.40;;
44893;SDS011;30625;52.206;21.030;2023-05-10T00:10:40;13.25;;;6.28;;
44893;SDS011;30625;52.206;21.030;2023-05-10T00:13:06;14.30;;;6.78;;
44893;SDS011;30625;52.206;21.030;2023-05-10T00:15:31;12.65;;;6.60;;
44893;SDS011;30625;52.206;21.030;2023-05-10T00:17:57;12.80;;;5.85;;
44893;SDS011;30625;52.206;21.030;2023-05-10T00:20:23;13.95;;;6.35;;
44893;SDS011;30625;52.206;21.030;2023-05-10T00:22:48;15.80;;;5.78;;
44893;SDS011;30625;52.206;21.030;2023-05-10T00:25:14;13.00;;;5.97;;
44893;SDS011;30625;52.206;21.030;2023-05-10T00:27:40;12.25;;;6.05;;
44893;SDS011;30625;52.206;21.030;2023-05-10T00:30:06;11.57;;;5.40;;
44893;SDS011;30625;52.206;21.030;2023-05-10T00:32:32;13.40;;;6.30;;
44893;SDS011;30625;52.206;21.030;2023-05-10T00:34:58;12.77;;;6.03;;
44893;SDS011;30625;52.206;21.030;2023-05-10T00:37:23;9.88;;;5.15;;
44893;SDS011;30625;52.206;21.030;2023-05-10T00:39:49;13.43;;;5.95;;
44893;SDS011;30625;52.206;21.030;2023-05-10T00:42:15;12.23;;;5.38;;
44893;SDS011;30625;52.206;21.030;2023-05-10T00:44:41;11.90;;;5.40;;
44893;SDS011;30625;52.206;21.030;2023-05-10T00:47:07;11.85;;;5.35;;
44893;SDS011;30625;52.206;21.030;2023-05-10T00:52:00;12.88;;;6.00;;
44893;SDS011;30625;52.206;21.030;2023-05-10T00:54:27;12.48;;;5.22;;
44893;SDS011;30625;52.206;21.030;2023-05-10T00:56:52;11.95;;;4.88;;
44893;SDS011;30625;52.206;21.030;2023-05-10T00:59:18;12.75;;;5.43;;
44893;SDS011;30625;52.206;21.030;2023-05-10T01:04:11;11.80;;;5.32;;
44893;SDS011;30625;52.206;21.030;2023-05-10T01:06:38;10.80;;;5.40;;
44893;SDS011;30625;52.206;21.030;2023-05-10T01:09:07;9.80;;;4.72;;
44893;SDS011;30625;52.206;21.030;2023-05-10T01:11:36;10.68;;;4.55;;
44893;SDS011;30625;52.206;21.030;2023-05-10T01:14:04;10.00;;;4.93;;
44893;SDS011;30625;52.206;21.030;2023-05-10T01:16:35;9.10;;;4.65;;
44893;SDS011;30625;52.206;21.030;2023-05-10T01:19:04;10.35;;;4.88;;
44893;SDS011;30625;52.206;21.030;2023-05-10T01:21:57;11.30;;;5.43;;
44893;SDS011;30625;52.206;21.030;2023-05-10T01:30:27;12.50;;;4.78;;
44893;SDS011;30625;52.206;21.030;2023-05-10T01:33:08;11.88;;;5.20;;
44893;SDS011;30625;52.206;21.030;2023-05-10T01:35:56;9.85;;;4.78;;
44893;SDS011;30625;52.206;21.030;2023-05-10T01:43:51;8.75;;;4.57;;
44893;SDS011;30625;52.206;21.030;2023-05-10T01:46:36;9.43;;;4.82;;
44893;SDS011;30625;52.206;21.030;2023-05-10T01:49:13;11.25;;;5.20;;
44893;SDS011;30625;52.206;21.030;2023-05-10T01:51:53;11.48;;;5.07;;
44893;SDS011;30625;52.206;21.030;2023-05-10T01:54:22;9.88;;;4.68;;
44893;SDS011;30625;52.206;21.030;2023-05-10T01:56:50;10.15;;;5.03;;
44893;SDS011;30625;52.206;21.030;2023-05-10T01:59:21;9.90;;;4.90;;
44893;SDS011;30625;52.206;21.030;2023-05-10T02:01:47;11.02;;;5.28;;
44893;SDS011;30625;52.206;21.030;2023-05-10T02:04:15;9.77;;;4.78;;
44893;SDS011;30625;52.206;21.030;2023-05-10T02:06:42;12.45;;;5.47;;
44893;SDS011;30625;52.206;21.030;2023-05-10T02:11:36;9.73;;;5.30;;
44893;SDS011;30625;52.206;21.030;2023-05-10T02:14:05;10.13;;;4.50;;
44893;SDS011;30625;52.206;21.030;2023-05-10T02:16:34;14.93;;;5.30;;
44893;SDS011;30625;52.206;21.030;2023-05-10T02:19:02;13.43;;;5.47;;
44893;SDS011;30625;52.206;21.030;2023-05-10T02:23:54;9.50;;;4.72;;
44893;SDS011;30625;52.206;21.030;2023-05-10T02:26:22;10.75;;;4.80;;
44893;SDS011;30625;52.206;21.030;2023-05-10T02:28:51;11.13;;;5.50;;
44893;SDS011;30625;52.206;21.030;2023-05-10T02:31:18;12.23;;;4.57;;
44893;SDS011;30625;52.206;21.030;2023-05-10T02:33:45;13.27;;;4.35;;
44893;SDS011;30625;52.206;21.030;2023-05-10T02:36:12;10.13;;;4.32;;
44893;SDS011;30625;52.206;21.030;2023-05-10T02:38:39;9.63;;;4.55;;
44893;SDS011;30625;52.206;21.030;2023-05-10T02:41:06;13.32;;;5.65;;
44893;SDS011;30625;52.206;21.030;2023-05-10T02:43:37;12.77;;;4.80;;
44893;SDS011;30625;52.206;21.030;2023-05-10T02:46:05;12.05;;;5.05;;
44893;SDS011;30625;52.206;21.030;2023-05-10T02:48:31;9.35;;;4.40;;
44893;SDS011;30625;52.206;21.030;2023-05-10T02:51:03;10.48;;;4.43;;
44893;SDS011;30625;52.206;21.030;2023-05-10T02:53:33;10.70;;;4.07;;
44893;SDS011;30625;52.206;21.030;2023-05-10T02:56:04;11.60;;;5.05;;
44893;SDS011;30625;52.206;21.030;2023-05-10T02:58:36;10.25;;;5.10;;
44893;SDS011;30625;52.206;21.030;2023-05-10T03:01:01;10.95;;;5.07;;
44893;SDS011;30625;52.206;21.030;2023-05-10T03:03:27;10.77;;;4.60;;
44893;SDS011;30625;52.206;21.030;2023-05-10T03:05:53;9.90;;;4.38;;
44893;SDS011;30625;52.206;21.030;2023-05-10T03:08:21;11.35;;;4.32;;
44893;SDS011;30625;52.206;21.030;2023-05-10T03:10:51;11.00;;;4.45;;
44893;SDS011;30625;52.206;21.030;2023-05-10T03:13:45;10.68;;;5.00;;
44893;SDS011;30625;52.206;21.030;2023-05-10T03:16:25;8.90;;;4.25;;
44893;SDS011;30625;52.206;21.030;2023-05-10T03:19:05;9.25;;;4.47;;
44893;SDS011;30625;52.206;21.030;2023-05-10T03:21:38;13.27;;;4.93;;
44893;SDS011;30625;52.206;21.030;2023-05-10T03:24:07;13.13;;;4.80;;
44893;SDS011;30625;52.206;21.030;2023-05-10T03:26:36;10.25;;;4.68;;
44893;SDS011;30625;52.206;21.030;2023-05-10T03:29:04;9.48;;;4.60;;
44893;SDS011;30625;52.206;21.030;2023-05-10T03:31:31;12.80;;;5.30;;
44893;SDS011;30625;52.206;21.030;2023-05-10T03:36:23;12.20;;;4.57;;
44893;SDS011;30625;52.206;21.030;2023-05-10T03:38:49;11.82;;;4.38;;
44893;SDS011;30625;52.206;21.030;2023-05-10T03:41:15;13.02;;;5.07;;
44893;SDS011;30625;52.206;21.030;2023-05-10T03:43:40;12.30;;;4.28;;
44893;SDS011;30625;52.206;21.030;2023-05-10T03:46:06;13.27;;;4.72;;
44893;SDS011;30625;52.206;21.030;2023-05-10T03:48:32;9.98;;;4.32;;
44893;SDS011;30625;52.206;21.030;2023-05-10T03:50:58;9.20;;;4.65;;
44893;SDS011;30625;52.206;21.030;2023-05-10T03:53:24;11.43;;;4.32;;
44893;SDS011;30625;52.206;21.030;2023-05-10T03:55:50;13.82;;;4.80;;
44893;SDS011;30625;52.206;21.030;2023-05-10T03:58:16;15.02;;;4.57;;
44893;SDS011;30625;52.206;21.030;2023-05-10T04:00:41;9.00;;;3.95;;
44893;SDS011;30625;52.206;21.030;2023-05-10T04:03:10;11.48;;;4.20;;
44893;SDS011;30625;52.206;21.030;2023-05-10T04:05:36;12.43;;;4.20;;
44893;SDS011;30625;52.206;21.030;2023-05-10T04:08:02;12.30;;;4.57;;
44893;SDS011;30625;52.206;21.030;2023-05-10T04:10:28;11.10;;;4.60;;
44893;SDS011;30625;52.206;21.030;2023-05-10T04:12:54;15.50;;;4.50;;
44893;SDS011;30625;52.206;21.030;2023-05-10T04:15:19;8.98;;;4.25;;
44893;SDS011;30625;52.206;21.030;2023-05-10T04:17:45;12.23;;;4.35;;
44893;SDS011;30625;52.206;21.030;2023-05-10T04:20:11;9.43;;;4.13;;
44893;SDS011;30625;52.206;21.030;2023-05-10T04:27:29;9.57;;;4.03;;
44893;SDS011;30625;52.206;21.030;2023-05-10T04:29:56;10.23;;;4.50;;
44893;SDS011;30625;52.206;21.030;2023-05-10T04:32:22;8.82;;;3.50;;
44893;SDS011;30625;52.206;21.030;2023-05-10T04:34:48;13.45;;;3.97;;
44893;SDS011;30625;52.206;21.030;2023-05-10T04:37:15;9.80;;;3.80;;
44893;SDS011;30625;52.206;21.030;2023-05-10T04:39:41;13.68;;;4.47;;
44893;SDS011;30625;52.206;21.030;2023-05-10T04:44:42;16.48;;;4.40;;
44893;SDS011;30625;52.206;21.030;2023-05-10T04:47:08;12.43;;;4.28;;
44893;SDS011;30625;52.206;21.030;2023-05-10T04:49:34;10.65;;;4.03;;
44893;SDS011;30625;52.206;21.030;2023-05-10T04:52:00;10.40;;;3.95;;
44893;SDS011;30625;52.206;21.030;2023-05-10T04:54:26;10.25;;;3.67;;
44893;SDS011;30625;52.206;21.030;2023-05-10T04:56:51;10.43;;;3.83;;
44893;SDS011;30625;52.206;21.030;2023-05-10T04:59:17;9.93;;;3.70;;
44893;SDS011;30625;52.206;21.030;2023-05-10T05:01:43;9.23;;;3.80;;
44893;SDS011;30625;52.206;21.030;2023-05-10T05:04:08;11.20;;;3.33;;
44893;SDS011;30625;52.206;21.030;2023-05-10T05:06:34;9.80;;;4.43;;
44893;SDS011;30625;52.206;21.030;2023-05-10T05:09:00;8.80;;;4.18;;
44893;SDS011;30625;52.206;21.030;2023-05-10T05:11:25;7.65;;;3.85;;
44893;SDS011;30625;52.206;21.030;2023-05-10T05:13:51;14.00;;;3.65;;
44893;SDS011;30625;52.206;21.030;2023-05-10T05:16:17;11.02;;;4.10;;
44893;SDS011;30625;52.206;21.030;2023-05-10T05:18:42;16.77;;;4.60;;
44893;SDS011;30625;52.206;21.030;2023-05-10T05:21:18;14.43;;;3.78;;
44893;SDS011;30625;52.206;21.030;2023-05-10T05:23:44;7.85;;;3.42;;
44893;SDS011;30625;52.206;21.030;2023-05-10T05:26:10;9.88;;;3.42;;
44893;SDS011;30625;52.206;21.030;2023-05-10T05:28:36;12.13;;;3.28;;
44893;SDS011;30625;52.206;21.030;2023-05-10T05:31:05;7.43;;;3.42;;
44893;SDS011;30625;52.206;21.030;2023-05-10T05:33:35;12.98;;;3.42;;
44893;SDS011;30625;52.206;21.030;2023-05-10T05:36:01;10.02;;;3.75;;
44893;SDS011;30625;52.206;21.030;2023-05-10T05:38:27;8.10;;;3.75;;
44893;SDS011;30625;52.206;21.030;2023-05-10T05:40:53;10.88;;;3.55;;
44893;SDS011;30625;52.206;21.030;2023-05-10T05:43:19;9.38;;;2.88;;
44893;SDS011;30625;52.206;21.030;2023-05-10T05:45:45;11.43;;;3.55;;
44893;SDS011;30625;52.206;21.030;2023-05-10T05:48:10;11.35;;;3.88;;
44893;SDS011;30625;52.206;21.030;2023-05-10T05:50:36;10.15;;;3.92;;
44893;SDS011;30625;52.206;21.030;2023-05-10T05:53:02;10.45;;;3.50;;
44893;SDS011;30625;52.206;21.030;2023-05-10T05:55:27;10.95;;;3.90;;
44893;SDS011;30625;52.206;21.030;2023-05-10T05:57:54;10.90;;;3.40;;
44893;SDS011;30625;52.206;21.030;2023-05-10T06:00:20;11.27;;;4.00;;
44893;SDS011;30625;52.206;21.030;2023-05-10T06:02:46;7.72;;;3.50;;
44893;SDS011;30625;52.206;21.030;2023-05-10T06:05:12;13.05;;;3.88;;
44893;SDS011;30625;52.206;21.030;2023-05-10T06:07:39;16.17;;;3.30;;
44893;SDS011;30625;52.206;21.030;2023-05-10T06:10:07;9.40;;;3.85;;
44893;SDS011;30625;52.206;21.030;2023-05-10T06:12:33;12.05;;;3.55;;
44893;SDS011;30625;52.206;21.030;2023-05-10T06:15:00;8.43;;;3.47;;
44893;SDS011;30625;52.206;21.030;2023-05-10T06:17:25;7.75;;;2.95;;
44893;SDS011;30625;52.206;21.030;2023-05-10T06:27:08;9.68;;;2.63;;
44893;SDS011;30625;52.206;21.030;2023-05-10T06:31:59;6.15;;;2.90;;
44893;SDS011;30625;52.206;21.030;2023-05-10T06:36:51;7.70;;;2.88;;
44893;SDS011;30625;52.206;21.030;2023-05-10T06:39:17;6.05;;;3.00;;
44893;SDS011;30625;52.206;21.030;2023-05-10T06:44:08;7.80;;;2.63;;
44893;SDS011;30625;52.206;21.030;2023-05-10T06:49:00;7.70;;;2.60;;
44893;SDS011;30625;52.206;21.030;2023-05-10T06:53:51;9.30;;;3.03;;
44893;SDS011;30625;52.206;21.030;2023-05-10T06:56:17;8.82;;;2.88;;
44893;SDS011;30625;52.206;21.030;2023-05-10T06:58:46;9.20;;;2.65;;
44893;SDS011;30625;52.206;21.030;2023-05-10T07:01:12;6.80;;;2.65;;
44893;SDS011;30625;52.206;21.030;2023-05-10T07:06:04;6.47;;;2.30;;
44893;SDS011;30625;52.206;21.030;2023-05-10T07:08:30;6.13;;;2.40;;
44893;SDS011;30625;52.206;21.030;2023-05-10T07:11:00;6.00;;;2.22;;
44893;SDS011;30625;52.206;21.030;2023-05-10T07:13:26;6.40;;;2.35;;
44893;SDS011;30625;52.206;21.030;2023-05-10T07:15:55;8.80;;;2.60;;
44893;SDS011;30625;52.206;21.030;2023-05-10T07:18:21;6.88;;;2.10;;
44893;SDS011;30625;52.206;21.030;2023-05-10T07:20:46;7.18;;;2.03;;
44893;SDS011;30625;52.206;21.030;2023-05-10T07:23:12;8.75;;;2.45;;
44893;SDS011;30625;52.206;21.030;2023-05-10T07:25:38;8.75;;;2.60;;
44893;SDS011;30625;52.206;21.030;2023-05-10T07:28:03;8.82;;;2.40;;
44893;SDS011;30625;52.206;21.030;2023-05-10T07:30:29;4.53;;;2.10;;
44893;SDS011;30625;52.206;21.030;2023-05-10T07:32:55;8.95;;;2.05;;
44893;SDS011;30625;52.206;21.030;2023-05-10T07:35:21;6.28;;;2.03;;
44893;SDS011;30625;52.206;21.030;2023-05-10T07:37:47;7.72;;;2.10;;
44893;SDS011;30625;52.206;21.030;2023-05-10T07:40:12;7.15;;;1.95;;
44893;SDS011;30625;52.206;21.030;2023-05-10T07:42:38;5.03;;;1.90;;
44893;SDS011;30625;52.206;21.030;2023-05-10T07:45:04;5.60;;;1.80;;
44893;SDS011;30625;52.206;21.030;2023-05-10T07:47:30;5.70;;;1.67;;
44893;SDS011;30625;52.206;21.030;2023-05-10T07:49:56;6.70;;;1.77;;
44893;SDS011;30625;52.206;21.030;2023-05-10T07:52:22;4.25;;;2.00;;
44893;SDS011;30625;52.206;21.030;2023-05-10T07:54:47;6.43;;;1.60;;
44893;SDS011;30625;52.206;21.030;2023-05-10T07:57:13;5.28;;;1.73;;
44893;SDS011;30625;52.206;21.030;2023-05-10T07:59:40;7.45;;;2.40;;
44893;SDS011;30625;52.206;21.030;2023-05-10T08:02:06;5.82;;;2.17;;
44893;SDS011;30625;52.206;21.030;2023-05-10T08:04:31;5.90;;;2.15;;
44893;SDS011;30625;52.206;21.030;2023-05-10T08:06:57;6.25;;;1.98;;
44893;SDS011;30625;52.206;21.030;2023-05-10T08:09:23;6.50;;;1.80;;
44893;SDS011;30625;52.206;21.030;2023-05-10T08:11:49;3.90;;;1.80;;
44893;SDS011;30625;52.206;21.030;2023-05-10T08:14:15;7.53;;;1.75;;
44893;SDS011;30625;52.206;21.030;2023-05-10T08:19:07;6.57;;;1.50;;
44893;SDS011;30625;52.206;21.030;2023-05-10T08:21:33;5.13;;;2.05;;
44893;SDS011;30625;52.206;21.030;2023-05-10T08:23:58;5.25;;;1.75;;
44893;SDS011;30625;52.206;21.030;2023-05-10T08:26:24;5.30;;;1.70;;
44893;SDS011;30625;52.206;21.030;2023-05-10T08:31:16;5.00;;;1.52;;
44893;SDS011;30625;52.206;21.030;2023-05-10T08:33:43;6.57;;;1.58;;
44893;SDS011;30625;52.206;21.030;2023-05-10T08:36:09;10.32;;;1.83;;
44893;SDS011;30625;52.206;21.030;2023-05-10T08:38:34;6.15;;;2.35;;
44893;SDS011;30625;52.206;21.030;2023-05-10T08:41:01;7.38;;;2.08;;
44893;SDS011;30625;52.206;21.030;2023-05-10T08:43:28;4.97;;;1.60;;
44893;SDS011;30625;52.206;21.030;2023-05-10T08:45:55;9.63;;;2.28;;
44893;SDS011;30625;52.206;21.030;2023-05-10T08:48:23;11.02;;;1.85;;
44893;SDS011;30625;52.206;21.030;2023-05-10T08:50:50;8.88;;;1.90;;
44893;SDS011;30625;52.206;21.030;2023-05-10T08:53:19;5.70;;;2.00;;
44893;SDS011;30625;52.206;21.030;2023-05-10T08:55:48;5.68;;;2.00;;
44893;SDS011;30625;52.206;21.030;2023-05-10T08:58:14;9.05;;;2.10;;
44893;SDS011;30625;52.206;21.030;2023-05-10T09:00:39;4.85;;;1.90;;
44893;SDS011;30625;52.206;21.030;2023-05-10T09:03:05;14.77;;;3.45;;
44893;SDS011;30625;52.206;21.030;2023-05-10T09:07:57;6.75;;;1.80;;
44893;SDS011;30625;52.206;21.030;2023-05-10T09:10:25;8.82;;;2.05;;
44893;SDS011;30625;52.206;21.030;2023-05-10T09:12:53;5.05;;;1.67;;
44893;SDS011;30625;52.206;21.030;2023-05-10T09:15:21;4.35;;;1.67;;
44893;SDS011;30625;52.206;21.030;2023-05-10T09:17:47;5.63;;;1.80;;
44893;SDS011;30625;52.206;21.030;2023-05-10T09:20:14;4.50;;;1.15;;
44893;SDS011;30625;52.206;21.030;2023-05-10T09:22:40;4.15;;;1.58;;
44893;SDS011;30625;52.206;21.030;2023-05-10T09:25:06;9.30;;;2.08;;
44893;SDS011;30625;52.206;21.030;2023-05-10T09:27:33;5.28;;;1.70;;
44893;SDS011;30625;52.206;21.030;2023-05-10T09:29:59;5.15;;;1.70;;
44893;SDS011;30625;52.206;21.030;2023-05-10T09:32:38;4.47;;;1.67;;
44893;SDS011;30625;52.206;21.030;2023-05-10T09:35:12;10.75;;;2.03;;
44893;SDS011;30625;52.206;21.030;2023-05-10T09:37:52;9.25;;;2.03;;
44893;SDS011;30625;52.206;21.030;2023-05-10T09:40:20;11.75;;;2.30;;
44893;SDS011;30625;52.206;21.030;2023-05-10T09:42:54;4.18;;;1.45;;
44893;SDS011;30625;52.206;21.030;2023-05-10T09:45:28;6.18;;;1.58;;
44893;SDS011;30625;52.206;21.030;2023-05-10T09:47:55;13.77;;;2.33;;
44893;SDS011;30625;52.206;21.030;2023-05-10T09:50:22;5.75;;;2.00;;
44893;SDS011;30625;52.206;21.030;2023-05-10T09:52:56;6.07;;;1.70;;
44893;SDS011;30625;52.206;21.030;2023-05-10T09:55:24;5.65;;;1.63;;
44893;SDS011;30625;52.206;21.030;2023-05-10T09:57:58;13.23;;;1.98;;
44893;SDS011;30625;52.206;21.030;2023-05-10T10:00:25;3.67;;;1.45;;
44893;SDS011;30625;52.206;21.030;2023-05-10T10:02:55;7.00;;;2.00;;
44893;SDS011;30625;52.206;21.030;2023-05-10T10:05:32;9.85;;;1.80;;
44893;SDS011;30625;52.206;21.030;2023-05-10T10:08:00;4.72;;;1.60;;
44893;SDS011;30625;52.206;21.030;2023-05-10T10:10:27;5.75;;;1.90;;
44893;SDS011;30625;52.206;21.030;2023-05-10T10:15:23;5.03;;;1.60;;
44893;SDS011;30625;52.206;21.030;2023-05-10T10:17:49;10.55;;;1.85;;
44893;SDS011;30625;52.206;21.030;2023-05-10T10:20:16;7.75;;;2.00;;
44893;SDS011;30625;52.206;21.030;2023-05-10T10:22:43;10.27;;;2.28;;
44893;SDS011;30625;52.206;21.030;2023-05-10T10:25:13;8.68;;;2.15;;
44893;SDS011;30625;52.206;21.030;2023-05-10T10:35:55;5.40;;;1.60;;
44893;SDS011;30625;52.206;21.030;2023-05-10T10:38:23;9.63;;;2.17;;
44893;SDS011;30625;52.206;21.030;2023-05-10T10:41:01;6.00;;;2.00;;
44893;SDS011;30625;52.206;21.030;2023-05-10T10:43:33;3.90;;;1.77;;
44893;SDS011;30625;52.206;21.030;2023-05-10T10:48:43;7.90;;;1.75;;
44893;SDS011;30625;52.206;21.030;2023-05-10T10:51:13;3.63;;;1.60;;
44893;SDS011;30625;52.206;21.030;2023-05-10T10:53:40;11.43;;;4.03;;
44893;SDS011;30625;52.206;21.030;2023-05-10T10:58:40;10.50;;;1.73;;
44893;SDS011;30625;52.206;21.030;2023-05-10T11:01:19;5.93;;;1.70;;
44893;SDS011;30625;52.206;21.030;2023-05-10T11:09:04;6.75;;;1.58;;
44893;SDS011;30625;52.206;21.030;2023-05-10T11:11:35;4.70;;;1.50;;
44893;SDS011;30625;52.206;21.030;2023-05-10T11:14:07;5.90;;;1.58;;
44893;SDS011;30625;52.206;21.030;2023-05-10T11:16:43;6.35;;;1.50;;
44893;SDS011;30625;52.206;21.030;2023-05-10T11:21:51;7.32;;;1.80;;
44893;SDS011;30625;52.206;21.030;2023-05-10T11:24:38;5.93;;;1.60;;
44893;SDS011;30625;52.206;21.030;2023-05-10T11:27:05;8.88;;;2.35;;
44893;SDS011;30625;52.206;21.030;2023-05-10T11:29:31;4.80;;;1.50;;
44893;SDS011;30625;52.206;21.030;2023-05-10T11:31:57;7.85;;;1.80;;
44893;SDS011;30625;52.206;21.030;2023-05-10T11:34:24;7.45;;;2.00;;
44893;SDS011;30625;52.206;21.030;2023-05-10T11:36:52;6.68;;;2.33;;
44893;SDS011;30625;52.206;21.030;2023-05-10T11:39:20;5.82;;;1.60;;
44893;SDS011;30625;52.206;21.030;2023-05-10T11:41:49;5.15;;;1.90;;
44893;SDS011;30625;52.206;21.030;2023-05-10T11:44:15;12.40;;;1.95;;
44893;SDS011;30625;52.206;21.030;2023-05-10T11:46:44;6.78;;;2.10;;
44893;SDS011;30625;52.206;21.030;2023-05-10T11:49:10;6.15;;;1.67;;
44893;SDS011;30625;52.206;21.030;2023-05-10T11:51:36;5.55;;;1.80;;
44893;SDS011;30625;52.206;21.030;2023-05-10T11:54:07;7.72;;;1.90;;
44893;SDS011;30625;52.206;21.030;2023-05-10T11:56:37;7.88;;;1.92;;
44893;SDS011;30625;52.206;21.030;2023-05-10T11:59:04;8.60;;;2.08;;
44893;SDS011;30625;52.206;21.030;2023-05-10T12:03:57;5.75;;;1.60;;
44893;SDS011;30625;52.206;21.030;2023-05-10T12:06:28;25.60;;;3.05;;
44893;SDS011;30625;52.206;21.030;2023-05-10T12:08:56;8.27;;;2.33;;
44893;SDS011;30625;52.206;21.030;2023-05-10T12:11:24;7.65;;;1.90;;
44893;SDS011;30625;52.206;21.030;2023-05-10T12:13:51;8.45;;;2.17;;
44893;SDS011;30625;52.206;21.030;2023-05-10T12:16:22;14.18;;;1.98;;
44893;SDS011;30625;52.206;21.030;2023-05-10T12:18:52;8.85;;;1.67;;
44893;SDS011;30625;52.206;21.030;2023-05-10T12:21:20;9.18;;;1.70;;
44893;SDS011;30625;52.206;21.030;2023-05-10T12:23:47;7.55;;;2.10;;
44893;SDS011;30625;52.206;21.030;2023-05-10T12:26:15;5.70;;;1.70;;
44893;SDS011;30625;52.206;21.030;2023-05-10T12:28:41;8.02;;;1.92;;
44893;SDS011;30625;52.206;21.030;2023-05-10T12:31:07;6.75;;;1.50;;
44893;SDS011;30625;52.206;21.030;2023-05-10T12:33:37;8.27;;;1.85;;
44893;SDS011;30625;52.206;21.030;2023-05-10T12:36:04;6.90;;;1.80;;
44893;SDS011;30625;52.206;21.030;2023-05-10T12:38:41;5.78;;;2.00;;
44893;SDS011;30625;52.206;21.030;2023-05-10T12:41:12;6.97;;;1.60;;
44893;SDS011;30625;52.206;21.030;2023-05-10T12:43:40;6.72;;;1.45;;
44893;SDS011;30625;52.206;21.030;2023-05-10T12:48:33;10.85;;;1.80;;
44893;SDS011;30625;52.206;21.030;2023-05-10T12:50:59;7.03;;;1.73;;
44893;SDS011;30625;52.206;21.030;2023-05-10T12:53:26;7.57;;;2.00;;
44893;SDS011;30625;52.206;21.030;2023-05-10T12:55:51;4.57;;;1.50;;
44893;SDS011;30625;52.206;21.030;2023-05-10T12:58:18;5.65;;;1.70;;
44893;SDS011;30625;52.206;21.030;2023-05-10T13:00:44;7.38;;;1.45;;
44893;SDS011;30625;52.206;21.030;2023-05-10T13:03:09;7.00;;;1.63;;
44893;SDS011;30625;52.206;21.030;2023-05-10T13:05:35;4.57;;;1.58;;
44893;SDS011;30625;52.206;21.030;2023-05-10T13:08:01;4.93;;;1.63;;
44893;SDS011;30625;52.206;21.030;2023-05-10T13:10:29;6.13;;;1.52;;
44893;SDS011;30625;52.206;21.030;2023-05-10T13:12:55;4.32;;;1.73;;
44893;SDS011;30625;52.206;21.030;2023-05-10T13:15:22;9.25;;;1.98;;
44893;SDS011;30625;52.206;21.030;2023-05-10T13:17:48;5.93;;;2.03;;
44893;SDS011;30625;52.206;21.030;2023-05-10T13:20:13;5.28;;;1.52;;
44893;SDS011;30625;52.206;21.030;2023-05-10T13:22:40;3.42;;;1.38;;
44893;SDS011;30625;52.206;21.030;2023-05-10T13:25:06;6.05;;;2.42;;
44893;SDS011;30625;52.206;21.030;2023-05-10T13:27:32;4.82;;;1.60;;
44893;SDS011;30625;52.206;21.030;2023-05-10T13:29:58;6.65;;;1.42;;
44893;SDS011;30625;52.206;21.030;2023-05-10T13:32:24;4.80;;;1.52;;
44893;SDS011;30625;52.206;21.030;2023-05-10T13:34:51;7.28;;;1.83;;
44893;SDS011;30625;52.206;21.030;2023-05-10T13:37:16;6.45;;;1.63;;
44893;SDS011;30625;52.206;21.030;2023-05-10T13:39:42;9.00;;;2.20;;
44893;SDS011;30625;52.206;21.030;2023-05-10T13:42:08;6.30;;;1.90;;
44893;SDS011;30625;52.206;21.030;2023-05-10T13:44:34;5.95;;;1.60;;
44893;SDS011;30625;52.206;21.030;2023-05-10T13:47:01;7.55;;;1.67;;
44893;SDS011;30625;52.206;21.030;2023-05-10T13:49:27;9.40;;;1.70;;
44893;SDS011;30625;52.206;21.030;2023-05-10T13:51:52;7.72;;;1.90;;
44893;SDS011;30625;52.206;21.030;2023-05-10T13:54:18;4.22;;;2.25;;
44893;SDS011;30625;52.206;21.030;2023-05-10T13:56:45;6.13;;;1.65;;
44893;SDS011;30625;52.206;21.030;2023-05-10T13:59:12;9.80;;;1.90;;
44893;SDS011;30625;52.206;21.030;2023-05-10T14:01:39;5.47;;;1.75;;
44893;SDS011;30625;52.206;21.030;2023-05-10T14:04:05;5.18;;;1.70;;
44893;SDS011;30625;52.206;21.030;2023-05-10T14:06:33;4.10;;;1.50;;
44893;SDS011;30625;52.206;21.030;2023-05-10T14:08:59;5.22;;;2.03;;
44893;SDS011;30625;52.206;21.030;2023-05-10T14:11:25;3.90;;;1.63;;
44893;SDS011;30625;52.206;21.030;2023-05-10T14:13:50;7.43;;;1.58;;
44893;SDS011;30625;52.206;21.030;2023-05-10T14:16:16;4.50;;;1.45;;
44893;SDS011;30625;52.206;21.030;2023-05-10T14:18:42;12.30;;;1.80;;
44893;SDS011;30625;52.206;21.030;2023-05-10T14:21:08;3.67;;;1.40;;
44893;SDS011;30625;52.206;21.030;2023-05-10T14:23:33;6.75;;;1.65;;
44893;SDS011;30625;52.206;21.030;2023-05-10T14:25:59;6.18;;;1.40;;
44893;SDS011;30625;52.206;21.030;2023-05-10T14:28:25;3.70;;;1.50;;
44893;SDS011;30625;52.206;21.030;2023-05-10T14:30:51;6.28;;;1.55;;
44893;SDS011;30625;52.206;21.030;2023-05-10T14:33:17;7.50;;;1.70;;
44893;SDS011;30625;52.206;21.030;2023-05-10T14:35:43;6.05;;;1.40;;
44893;SDS011;30625;52.206;21.030;2023-05-10T14:38:10;7.95;;;1.98;;
44893;SDS011;30625;52.206;21.030;2023-05-10T14:40:36;4.70;;;1.75;;
44893;SDS011;30625;52.206;21.030;2023-05-10T14:43:01;8.70;;;1.60;;
44893;SDS011;30625;52.206;21.030;2023-05-10T14:45:27;4.95;;;1.85;;
44893;SDS011;30625;52.206;21.030;2023-05-10T14:47:53;4.75;;;1.80;;
44893;SDS011;30625;52.206;21.030;2023-05-10T14:50:18;4.95;;;1.67;;
44893;SDS011;30625;52.206;21.030;2023-05-10T14:52:44;4.45;;;1.73;;
44893;SDS011;30625;52.206;21.030;2023-05-10T14:55:13;7.57;;;1.65;;
44893;SDS011;30625;52.206;21.030;2023-05-10T15:08:01;6.57;;;1.63;;
44893;SDS011;30625;52.206;21.030;2023-05-10T15:10:27;4.40;;;1.73;;
44893;SDS011;30625;52.206;21.030;2023-05-10T15:12:53;5.38;;;1.45;;
44893;SDS011;30625;52.206;21.030;2023-05-10T15:15:19;6.60;;;1.92;;
44893;SDS011;30625;52.206;21.030;2023-05-10T15:20:20;7.03;;;1.52;;
44893;SDS011;30625;52.206;21.030;2023-05-10T15:22:46;7.60;;;1.52;;
44893;SDS011;30625;52.206;21.030;2023-05-10T15:25:26;7.22;;;2.13;;
44893;SDS011;30625;52.206;21.030;2023-05-10T15:27:52;5.05;;;1.67;;
44893;SDS011;30625;52.206;21.030;2023-05-10T15:30:18;5.20;;;1.50;;
44893;SDS011;30625;52.206;21.030;2023-05-10T15:32:47;9.40;;;1.63;;
44893;SDS011;30625;52.206;21.030;2023-05-10T15:35:12;6.90;;;1.75;;
44893;SDS011;30625;52.206;21.030;2023-05-10T15:37:42;4.70;;;1.60;;
44893;SDS011;30625;52.206;21.030;2023-05-10T15:40:08;4.45;;;2.22;;
44893;SDS011;30625;52.206;21.030;2023-05-10T15:45:12;5.28;;;1.60;;
44893;SDS011;30625;52.206;21.030;2023-05-10T15:47:41;5.68;;;1.45;;
44893;SDS011;30625;52.206;21.030;2023-05-10T15:50:11;6.43;;;1.60;;
44893;SDS011;30625;52.206;21.030;2023-05-10T15:52:40;7.05;;;1.55;;
44893;SDS011;30625;52.206;21.030;2023-05-10T15:55:08;5.85;;;1.67;;
44893;SDS011;30625;52.206;21.030;2023-05-10T15:57:38;4.15;;;1.40;;
44893;SDS011;30625;52.206;21.030;2023-05-10T16:00:05;10.25;;;1.92;;
44893;SDS011;30625;52.206;21.030;2023-05-10T16:02:35;8.65;;;1.60;;
44893;SDS011;30625;52.206;21.030;2023-05-10T16:05:01;5.53;;;1.63;;
44893;SDS011;30625;52.206;21.030;2023-05-10T16:07:27;4.75;;;1.38;;
44893;SDS011;30625;52.206;21.030;2023-05-10T16:09:55;5.18;;;1.48;;
44893;SDS011;30625;52.206;21.030;2023-05-10T16:12:21;5.10;;;1.27;;
44893;SDS011;30625;52.206;21.030;2023-05-10T16:14:46;11.00;;;1.60;;
44893;SDS011;30625;52.206;21.030;2023-05-10T16:17:12;3.53;;;1.30;;